Viking Crusader — LE7883 — position and weather

sailwx.info

Track history (hours):
 
Tides and Currents Weather Stations Pressure Air Temp Water Temp Dewpoint Dewpoint Depression Visibility Wind Speed Wind Dir Waves Ship Positions

Viking Crusader

Last reported at 2017-Aug-24 20:27 UTC. Time now 2017-Sep-22 19:09 UTC.
Position N 44°55' W 002°27'.
Warning: this ship's position is 28 days out of date.

Length 12 m.

Type: Sailing vessel. MMSI: 257938390.

Date/timePositionNaut miles runAvg speedWind from/ knotsBaromVisibWave heightAir tempDewpointWater temp
2017-Aug-24 20:27N 44°55' W 002°27'4 7.7
2017-Aug-24 19:57N 44°58' W 002°24'3 7.8
2017-Aug-24 19:30N 45°01' W 002°22'77 7.1
2017-Aug-24 08:34N 46°06' W 001°21'0 7.7
2017-Aug-24 08:31N 46°06' W 001°20'4 8.0
2017-Aug-24 08:00N 46°07' W 001°15'3 7.1
2017-Aug-24 07:30N 46°09' W 001°10'0 0.0
2017-Aug-23 08:21N 46°09' W 001°10'0 0.5
2017-Aug-23 08:00N 46°09' W 001°10'3 5.4
2017-Aug-23 07:30N 46°09' W 001°14'3 6.5
2017-Aug-23 07:00N 46°11' W 001°16'16 0.9
2017-Aug-22 12:44N 46°21' W 001°34'2 7.3
2017-Aug-22 12:28N 46°22' W 001°37'3 7.2
2017-Aug-22 12:00N 46°24' W 001°41'3 6.7
2017-Aug-22 11:30N 46°26' W 001°45'3 6.4
2017-Aug-22 11:00N 46°28' W 001°49'3 6.1
2017-Aug-22 10:30N 46°29' W 001°52'3 6.0
2017-Aug-22 10:00N 46°31' W 001°56'3 5.6
2017-Aug-22 09:30N 46°33' W 001°59'18 0.8
2017-Aug-21 09:44N 46°44' W 002°21'2 4.6
2017-Aug-21 09:17N 46°46' W 002°21'2 5.5
2017-Aug-21 09:00N 46°47' W 002°22'3 5.2
2017-Aug-21 08:30N 46°50' W 002°22'32 1.4
2017-Aug-20 10:32N 47°18' W 002°42'1 5.7
2017-Aug-20 10:24N 47°19' W 002°43'2 5.7
2017-Aug-20 10:00N 47°20' W 002°46'3 5.6
2017-Aug-20 09:29N 47°22' W 002°49'3 5.8
2017-Aug-20 09:00N 47°24' W 002°52'3 6.0
2017-Aug-20 08:30N 47°26' W 002°56'3 5.8
2017-Aug-20 08:00N 47°27' W 002°60'3 5.8
2017-Aug-20 07:30N 47°28' W 003°03'2 0.2
2017-Aug-19 19:05N 47°29' W 003°06'0 0.0
2017-Aug-19 18:59N 47°29' W 003°06'2 4.2
2017-Aug-19 18:30N 47°29' W 003°03'2 4.1
2017-Aug-19 18:00N 47°27' W 003°03'3 5.2
2017-Aug-19 17:30N 47°25' W 003°06'3 5.7
2017-Aug-19 17:00N 47°24' W 003°10'2 4.5
2017-Aug-19 16:30N 47°25' W 003°13'3 6.6
2017-Aug-19 16:00N 47°27' W 003°16'4 7.0
2017-Aug-19 15:31N 47°30' W 003°20'4 7.1
2017-Aug-19 15:01N 47°32' W 003°23'7 6.9
2017-Aug-19 14:00N 47°37' W 003°32'4 7.3
2017-Aug-19 13:30N 47°39' W 003°36'21 7.3
2017-Aug-19 10:33N 47°50' W 004°03'26 1.4
2017-Aug-18 15:33N 47°57' W 004°40'1 7.8
2017-Aug-18 15:29N 47°57' W 004°41'4 7.9
2017-Aug-18 15:00N 48°00' W 004°45'8 8.3
2017-Aug-18 14:00N 48°08' W 004°43'4 7.8
2017-Aug-18 13:30N 48°12' W 004°41'4 7.7
2017-Aug-18 13:00N 48°16' W 004°40'3 6.0
2017-Aug-18 12:30N 48°18' W 004°36'1 1.6
2017-Aug-18 11:59N 48°17' W 004°35'  
Track history (hours):
 
Tides and Currents Weather Stations Pressure Air Temp Water Temp Dewpoint Dewpoint Depression Visibility Wind Speed Wind Dir Waves Ship Positions

Viking Crusader

Last reported at 2017-Aug-24 20:27 UTC. Time now 2017-Sep-22 19:09 UTC.
Position N 44°55' W 002°27'.
Warning: this ship's position is 28 days out of date.

Length 12 m.

Type: Sailing vessel. MMSI: 257938390.

Date/timePositionNaut miles runAvg speedWind from/ knotsBaromVisibWave heightAir tempDewpointWater temp
2017-Aug-24 20:27N 44°55' W 002°27'4 7.7
2017-Aug-24 19:57N 44°58' W 002°24'3 7.8
2017-Aug-24 19:30N 45°01' W 002°22'77 7.1
2017-Aug-24 08:34N 46°06' W 001°21'0 7.7
2017-Aug-24 08:31N 46°06' W 001°20'4 8.0
2017-Aug-24 08:00N 46°07' W 001°15'3 7.1
2017-Aug-24 07:30N 46°09' W 001°10'0 0.0
2017-Aug-23 08:21N 46°09' W 001°10'0 0.5
2017-Aug-23 08:00N 46°09' W 001°10'3 5.4
2017-Aug-23 07:30N 46°09' W 001°14'3 6.5
2017-Aug-23 07:00N 46°11' W 001°16'16 0.9
2017-Aug-22 12:44N 46°21' W 001°34'2 7.3
2017-Aug-22 12:28N 46°22' W 001°37'3 7.2
2017-Aug-22 12:00N 46°24' W 001°41'3 6.7
2017-Aug-22 11:30N 46°26' W 001°45'3 6.4
2017-Aug-22 11:00N 46°28' W 001°49'3 6.1
2017-Aug-22 10:30N 46°29' W 001°52'3 6.0
2017-Aug-22 10:00N 46°31' W 001°56'3 5.6
2017-Aug-22 09:30N 46°33' W 001°59'18 0.8
2017-Aug-21 09:44N 46°44' W 002°21'2 4.6
2017-Aug-21 09:17N 46°46' W 002°21'2 5.5
2017-Aug-21 09:00N 46°47' W 002°22'3 5.2
2017-Aug-21 08:30N 46°50' W 002°22'32 1.4
2017-Aug-20 10:32N 47°18' W 002°42'1 5.7
2017-Aug-20 10:24N 47°19' W 002°43'2 5.7
2017-Aug-20 10:00N 47°20' W 002°46'3 5.6
2017-Aug-20 09:29N 47°22' W 002°49'3 5.8
2017-Aug-20 09:00N 47°24' W 002°52'3 6.0
2017-Aug-20 08:30N 47°26' W 002°56'3 5.8
2017-Aug-20 08:00N 47°27' W 002°60'3 5.8
2017-Aug-20 07:30N 47°28' W 003°03'2 0.2
2017-Aug-19 19:05N 47°29' W 003°06'0 0.0
2017-Aug-19 18:59N 47°29' W 003°06'2 4.2
2017-Aug-19 18:30N 47°29' W 003°03'2 4.1
2017-Aug-19 18:00N 47°27' W 003°03'3 5.2
2017-Aug-19 17:30N 47°25' W 003°06'3 5.7
2017-Aug-19 17:00N 47°24' W 003°10'2 4.5
2017-Aug-19 16:30N 47°25' W 003°13'3 6.6
2017-Aug-19 16:00N 47°27' W 003°16'4 7.0
2017-Aug-19 15:31N 47°30' W 003°20'4 7.1
2017-Aug-19 15:01N 47°32' W 003°23'7 6.9
2017-Aug-19 14:00N 47°37' W 003°32'4 7.3
2017-Aug-19 13:30N 47°39' W 003°36'21 7.3
2017-Aug-19 10:33N 47°50' W 004°03'26 1.4
2017-Aug-18 15:33N 47°57' W 004°40'1 7.8
2017-Aug-18 15:29N 47°57' W 004°41'4 7.9
2017-Aug-18 15:00N 48°00' W 004°45'8 8.3
2017-Aug-18 14:00N 48°08' W 004°43'4 7.8
2017-Aug-18 13:30N 48°12' W 004°41'4 7.7
2017-Aug-18 13:00N 48°16' W 004°40'3 6.0
2017-Aug-18 12:30N 48°18' W 004°36'1 1.6
2017-Aug-18 11:59N 48°17' W 004°35'  

Dump ship's entire track history